sensor_id;sensor_type;location;lat;lon;timestamp;P1;durP1;ratioP1;P2;durP2;ratioP2
56824;SDS011;42705;50.326;18.772;2023-06-01T00:04:42;22.90;;;9.00;;
56824;SDS011;42705;50.326;18.772;2023-06-01T00:10:04;18.70;;;9.40;;
56824;SDS011;42705;50.326;18.772;2023-06-01T00:15:26;19.50;;;10.60;;
56824;SDS011;42705;50.326;18.772;2023-06-01T00:26:12;16.50;;;10.20;;
56824;SDS011;42705;50.326;18.772;2023-06-01T00:36:57;14.90;;;7.20;;
56824;SDS011;42705;50.326;18.772;2023-06-01T00:42:19;18.90;;;7.30;;
56824;SDS011;42705;50.326;18.772;2023-06-01T00:47:41;15.00;;;8.40;;
56824;SDS011;42705;50.326;18.772;2023-06-01T00:53:05;14.20;;;7.40;;
56824;SDS011;42705;50.326;18.772;2023-06-01T00:58:30;14.60;;;7.20;;
56824;SDS011;42705;50.326;18.772;2023-06-01T01:14:50;15.30;;;6.40;;
56824;SDS011;42705;50.326;18.772;2023-06-01T01:20:22;14.10;;;6.80;;
56824;SDS011;42705;50.326;18.772;2023-06-01T01:31:17;14.90;;;7.30;;
56824;SDS011;42705;50.326;18.772;2023-06-01T01:36:43;16.30;;;6.80;;
56824;SDS011;42705;50.326;18.772;2023-06-01T01:42:05;14.70;;;7.20;;
56824;SDS011;42705;50.326;18.772;2023-06-01T01:52:56;17.10;;;6.80;;
56824;SDS011;42705;50.326;18.772;2023-06-01T01:58:19;13.60;;;6.50;;
56824;SDS011;42705;50.326;18.772;2023-06-01T02:03:42;14.50;;;6.70;;
56824;SDS011;42705;50.326;18.772;2023-06-01T02:09:04;18.50;;;8.10;;
56824;SDS011;42705;50.326;18.772;2023-06-01T02:14:28;14.90;;;7.40;;
56824;SDS011;42705;50.326;18.772;2023-06-01T02:19:50;16.10;;;8.20;;
56824;SDS011;42705;50.326;18.772;2023-06-01T02:25:12;16.00;;;8.90;;
56824;SDS011;42705;50.326;18.772;2023-06-01T02:30:34;19.50;;;9.90;;
56824;SDS011;42705;50.326;18.772;2023-06-01T02:35:56;13.80;;;8.60;;
56824;SDS011;42705;50.326;18.772;2023-06-01T02:41:18;17.90;;;8.50;;
56824;SDS011;42705;50.326;18.772;2023-06-01T02:46:40;15.90;;;9.40;;
56824;SDS011;42705;50.326;18.772;2023-06-01T02:52:02;17.20;;;9.30;;
56824;SDS011;42705;50.326;18.772;2023-06-01T02:57:25;17.90;;;9.00;;
56824;SDS011;42705;50.326;18.772;2023-06-01T03:02:52;15.10;;;8.80;;
56824;SDS011;42705;50.326;18.772;2023-06-01T03:08:15;20.40;;;9.20;;
56824;SDS011;42705;50.326;18.772;2023-06-01T03:13:38;16.80;;;8.60;;
56824;SDS011;42705;50.326;18.772;2023-06-01T03:19:00;19.10;;;9.20;;
56824;SDS011;42705;50.326;18.772;2023-06-01T03:24:22;16.80;;;9.00;;
56824;SDS011;42705;50.326;18.772;2023-06-01T03:29:49;15.00;;;9.10;;
56824;SDS011;42705;50.326;18.772;2023-06-01T03:35:12;17.00;;;9.70;;
56824;SDS011;42705;50.326;18.772;2023-06-01T03:40:35;14.40;;;8.70;;
56824;SDS011;42705;50.326;18.772;2023-06-01T03:45:57;18.70;;;9.60;;
56824;SDS011;42705;50.326;18.772;2023-06-01T03:51:19;17.80;;;9.50;;
56824;SDS011;42705;50.326;18.772;2023-06-01T03:56:41;18.30;;;8.80;;
56824;SDS011;42705;50.326;18.772;2023-06-01T04:02:03;19.90;;;9.20;;
56824;SDS011;42705;50.326;18.772;2023-06-01T04:07:26;18.30;;;8.90;;
56824;SDS011;42705;50.326;18.772;2023-06-01T04:12:49;15.70;;;9.00;;
56824;SDS011;42705;50.326;18.772;2023-06-01T04:18:13;18.30;;;9.90;;
56824;SDS011;42705;50.326;18.772;2023-06-01T04:23:50;20.10;;;10.00;;
56824;SDS011;42705;50.326;18.772;2023-06-01T04:29:14;16.20;;;10.20;;
56824;SDS011;42705;50.326;18.772;2023-06-01T04:34:36;17.40;;;10.60;;
56824;SDS011;42705;50.326;18.772;2023-06-01T04:39:59;18.40;;;11.10;;
56824;SDS011;42705;50.326;18.772;2023-06-01T04:45:23;23.80;;;12.30;;
56824;SDS011;42705;50.326;18.772;2023-06-01T04:50:47;21.40;;;10.90;;
56824;SDS011;42705;50.326;18.772;2023-06-01T04:56:09;22.60;;;11.20;;
56824;SDS011;42705;50.326;18.772;2023-06-01T05:01:30;19.50;;;11.30;;
56824;SDS011;42705;50.326;18.772;2023-06-01T05:06:52;22.20;;;11.20;;
56824;SDS011;42705;50.326;18.772;2023-06-01T05:12:15;23.60;;;11.20;;
56824;SDS011;42705;50.326;18.772;2023-06-01T05:17:37;25.50;;;11.90;;
56824;SDS011;42705;50.326;18.772;2023-06-01T05:23:04;16.60;;;10.60;;
56824;SDS011;42705;50.326;18.772;2023-06-01T05:28:31;23.70;;;11.00;;
56824;SDS011;42705;50.326;18.772;2023-06-01T05:33:53;18.50;;;11.10;;
56824;SDS011;42705;50.326;18.772;2023-06-01T05:39:18;23.80;;;11.10;;
56824;SDS011;42705;50.326;18.772;2023-06-01T05:44:40;16.40;;;10.30;;
56824;SDS011;42705;50.326;18.772;2023-06-01T05:50:02;19.20;;;11.00;;
56824;SDS011;42705;50.326;18.772;2023-06-01T05:55:26;19.10;;;10.80;;
56824;SDS011;42705;50.326;18.772;2023-06-01T06:00:48;21.80;;;12.00;;
56824;SDS011;42705;50.326;18.772;2023-06-01T06:06:10;17.40;;;9.50;;
56824;SDS011;42705;50.326;18.772;2023-06-01T06:11:32;21.90;;;10.90;;
56824;SDS011;42705;50.326;18.772;2023-06-01T06:16:54;17.00;;;10.70;;
56824;SDS011;42705;50.326;18.772;2023-06-01T06:22:16;17.80;;;10.60;;
56824;SDS011;42705;50.326;18.772;2023-06-01T06:27:38;21.50;;;10.50;;
56824;SDS011;42705;50.326;18.772;2023-06-01T06:38:23;21.60;;;10.20;;
56824;SDS011;42705;50.326;18.772;2023-06-01T06:43:45;22.20;;;10.80;;
56824;SDS011;42705;50.326;18.772;2023-06-01T06:49:07;20.50;;;9.20;;
56824;SDS011;42705;50.326;18.772;2023-06-01T06:54:31;18.70;;;8.80;;
56824;SDS011;42705;50.326;18.772;2023-06-01T06:59:53;18.10;;;8.90;;
56824;SDS011;42705;50.326;18.772;2023-06-01T07:05:14;18.90;;;9.10;;
56824;SDS011;42705;50.326;18.772;2023-06-01T07:10:36;15.30;;;9.20;;
56824;SDS011;42705;50.326;18.772;2023-06-01T07:15:58;18.20;;;8.50;;
56824;SDS011;42705;50.326;18.772;2023-06-01T07:21:20;18.80;;;9.60;;
56824;SDS011;42705;50.326;18.772;2023-06-01T07:26:42;18.40;;;8.80;;
56824;SDS011;42705;50.326;18.772;2023-06-01T07:32:05;14.70;;;8.00;;
56824;SDS011;42705;50.326;18.772;2023-06-01T07:37:27;15.70;;;8.30;;
56824;SDS011;42705;50.326;18.772;2023-06-01T07:42:49;10.60;;;7.20;;
56824;SDS011;42705;50.326;18.772;2023-06-01T07:48:11;14.60;;;7.40;;
56824;SDS011;42705;50.326;18.772;2023-06-01T07:53:33;13.10;;;5.80;;
56824;SDS011;42705;50.326;18.772;2023-06-01T07:58:55;8.80;;;5.50;;
56824;SDS011;42705;50.326;18.772;2023-06-01T08:04:17;9.40;;;5.20;;
56824;SDS011;42705;50.326;18.772;2023-06-01T08:09:43;10.10;;;4.80;;
56824;SDS011;42705;50.326;18.772;2023-06-01T08:15:06;10.20;;;4.20;;
56824;SDS011;42705;50.326;18.772;2023-06-01T08:20:28;4.70;;;2.80;;
56824;SDS011;42705;50.326;18.772;2023-06-01T08:25:51;7.50;;;2.30;;
56824;SDS011;42705;50.326;18.772;2023-06-01T08:31:13;5.90;;;2.30;;
56824;SDS011;42705;50.326;18.772;2023-06-01T08:36:36;8.10;;;2.50;;
56824;SDS011;42705;50.326;18.772;2023-06-01T08:47:43;4.80;;;2.60;;
56824;SDS011;42705;50.326;18.772;2023-06-01T08:53:08;5.90;;;2.50;;
56824;SDS011;42705;50.326;18.772;2023-06-01T08:58:30;5.80;;;2.20;;
56824;SDS011;42705;50.326;18.772;2023-06-01T09:09:14;4.30;;;2.30;;
56824;SDS011;42705;50.326;18.772;2023-06-01T09:14:36;4.50;;;1.60;;
56824;SDS011;42705;50.326;18.772;2023-06-01T09:19:58;4.00;;;2.60;;
56824;SDS011;42705;50.326;18.772;2023-06-01T09:25:27;5.00;;;2.40;;
56824;SDS011;42705;50.326;18.772;2023-06-01T09:30:51;3.90;;;2.40;;
56824;SDS011;42705;50.326;18.772;2023-06-01T09:36:23;6.20;;;2.20;;
56824;SDS011;42705;50.326;18.772;2023-06-01T09:41:48;3.20;;;1.70;;
56824;SDS011;42705;50.326;18.772;2023-06-01T09:47:14;2.70;;;1.90;;
56824;SDS011;42705;50.326;18.772;2023-06-01T09:52:36;7.20;;;2.40;;
56824;SDS011;42705;50.326;18.772;2023-06-01T10:03:44;8.40;;;2.30;;
56824;SDS011;42705;50.326;18.772;2023-06-01T10:09:10;4.10;;;2.20;;
56824;SDS011;42705;50.326;18.772;2023-06-01T10:14:39;4.00;;;2.10;;
56824;SDS011;42705;50.326;18.772;2023-06-01T10:20:01;4.50;;;2.30;;
56824;SDS011;42705;50.326;18.772;2023-06-01T10:25:24;2.90;;;2.00;;
56824;SDS011;42705;50.326;18.772;2023-06-01T10:31:03;3.50;;;2.40;;
56824;SDS011;42705;50.326;18.772;2023-06-01T10:52:56;5.80;;;2.00;;
56824;SDS011;42705;50.326;18.772;2023-06-01T11:04:00;5.30;;;2.20;;
56824;SDS011;42705;50.326;18.772;2023-06-01T11:09:23;5.20;;;1.70;;
56824;SDS011;42705;50.326;18.772;2023-06-01T11:15:09;9.50;;;2.20;;
56824;SDS011;42705;50.326;18.772;2023-06-01T11:20:37;4.50;;;2.00;;
56824;SDS011;42705;50.326;18.772;2023-06-01T11:26:01;5.00;;;2.10;;
56824;SDS011;42705;50.326;18.772;2023-06-01T11:31:27;5.60;;;1.90;;
56824;SDS011;42705;50.326;18.772;2023-06-01T11:36:57;2.40;;;1.60;;
56824;SDS011;42705;50.326;18.772;2023-06-01T11:42:20;4.20;;;1.90;;
56824;SDS011;42705;50.326;18.772;2023-06-01T11:47:43;6.40;;;1.90;;
56824;SDS011;42705;50.326;18.772;2023-06-01T11:53:06;3.00;;;1.60;;
56824;SDS011;42705;50.326;18.772;2023-06-01T12:03:51;3.80;;;1.80;;
56824;SDS011;42705;50.326;18.772;2023-06-01T12:09:14;4.60;;;1.40;;
56824;SDS011;42705;50.326;18.772;2023-06-01T12:14:37;3.30;;;1.70;;
56824;SDS011;42705;50.326;18.772;2023-06-01T12:20:00;5.00;;;2.00;;
56824;SDS011;42705;50.326;18.772;2023-06-01T12:25:22;3.70;;;1.80;;
56824;SDS011;42705;50.326;18.772;2023-06-01T12:30:45;3.70;;;2.00;;
56824;SDS011;42705;50.326;18.772;2023-06-01T12:36:08;3.80;;;1.50;;
56824;SDS011;42705;50.326;18.772;2023-06-01T12:41:30;3.40;;;2.00;;
56824;SDS011;42705;50.326;18.772;2023-06-01T12:46:56;2.20;;;1.70;;
56824;SDS011;42705;50.326;18.772;2023-06-01T12:52:20;2.70;;;1.70;;
56824;SDS011;42705;50.326;18.772;2023-06-01T12:57:42;5.30;;;2.00;;
56824;SDS011;42705;50.326;18.772;2023-06-01T13:03:05;2.30;;;1.70;;
56824;SDS011;42705;50.326;18.772;2023-06-01T13:08:28;3.90;;;1.60;;
56824;SDS011;42705;50.326;18.772;2023-06-01T13:13:51;2.80;;;1.30;;
56824;SDS011;42705;50.326;18.772;2023-06-01T13:19:13;1.90;;;1.40;;
56824;SDS011;42705;50.326;18.772;2023-06-01T13:24:35;3.60;;;1.70;;
56824;SDS011;42705;50.326;18.772;2023-06-01T13:29:57;2.40;;;1.60;;
56824;SDS011;42705;50.326;18.772;2023-06-01T13:35:19;2.80;;;1.30;;
56824;SDS011;42705;50.326;18.772;2023-06-01T13:40:41;1.80;;;1.30;;
56824;SDS011;42705;50.326;18.772;2023-06-01T13:46:03;2.90;;;1.50;;
56824;SDS011;42705;50.326;18.772;2023-06-01T13:51:25;2.60;;;1.60;;
56824;SDS011;42705;50.326;18.772;2023-06-01T13:56:48;6.70;;;1.30;;
56824;SDS011;42705;50.326;18.772;2023-06-01T14:02:10;3.30;;;1.10;;
56824;SDS011;42705;50.326;18.772;2023-06-01T14:07:33;2.00;;;1.10;;
56824;SDS011;42705;50.326;18.772;2023-06-01T14:12:55;2.50;;;1.20;;
56824;SDS011;42705;50.326;18.772;2023-06-01T14:18:17;1.80;;;1.20;;
56824;SDS011;42705;50.326;18.772;2023-06-01T14:23:39;2.90;;;1.40;;
56824;SDS011;42705;50.326;18.772;2023-06-01T14:29:03;2.00;;;1.30;;
56824;SDS011;42705;50.326;18.772;2023-06-01T14:34:25;2.40;;;1.20;;
56824;SDS011;42705;50.326;18.772;2023-06-01T14:39:47;2.00;;;1.30;;
56824;SDS011;42705;50.326;18.772;2023-06-01T14:45:09;2.40;;;1.20;;
56824;SDS011;42705;50.326;18.772;2023-06-01T14:50:33;2.40;;;1.40;;
56824;SDS011;42705;50.326;18.772;2023-06-01T14:55:55;3.30;;;1.30;;
56824;SDS011;42705;50.326;18.772;2023-06-01T15:01:16;2.70;;;1.50;;
56824;SDS011;42705;50.326;18.772;2023-06-01T15:06:39;2.80;;;1.30;;
56824;SDS011;42705;50.326;18.772;2023-06-01T15:12:01;1.90;;;1.40;;
56824;SDS011;42705;50.326;18.772;2023-06-01T15:17:23;7.80;;;1.30;;
56824;SDS011;42705;50.326;18.772;2023-06-01T15:22:45;1.50;;;1.10;;
56824;SDS011;42705;50.326;18.772;2023-06-01T15:28:08;1.90;;;1.40;;
56824;SDS011;42705;50.326;18.772;2023-06-01T15:33:30;2.50;;;1.40;;
56824;SDS011;42705;50.326;18.772;2023-06-01T15:38:52;2.80;;;1.40;;
56824;SDS011;42705;50.326;18.772;2023-06-01T15:44:14;3.70;;;1.70;;
56824;SDS011;42705;50.326;18.772;2023-06-01T15:49:40;3.70;;;1.50;;
56824;SDS011;42705;50.326;18.772;2023-06-01T15:55:02;3.80;;;1.60;;
56824;SDS011;42705;50.326;18.772;2023-06-01T16:00:25;4.80;;;1.40;;
56824;SDS011;42705;50.326;18.772;2023-06-01T16:05:48;3.10;;;1.70;;
56824;SDS011;42705;50.326;18.772;2023-06-01T16:11:11;2.70;;;1.40;;
56824;SDS011;42705;50.326;18.772;2023-06-01T16:16:33;3.50;;;1.40;;
56824;SDS011;42705;50.326;18.772;2023-06-01T16:21:55;2.00;;;1.60;;
56824;SDS011;42705;50.326;18.772;2023-06-01T16:27:19;3.00;;;1.60;;
56824;SDS011;42705;50.326;18.772;2023-06-01T16:32:41;2.30;;;1.30;;
56824;SDS011;42705;50.326;18.772;2023-06-01T16:38:03;4.20;;;1.20;;
56824;SDS011;42705;50.326;18.772;2023-06-01T16:43:25;6.10;;;1.70;;
56824;SDS011;42705;50.326;18.772;2023-06-01T16:48:47;2.90;;;1.40;;
56824;SDS011;42705;50.326;18.772;2023-06-01T16:54:10;2.40;;;1.40;;
56824;SDS011;42705;50.326;18.772;2023-06-01T16:59:32;3.50;;;1.30;;
56824;SDS011;42705;50.326;18.772;2023-06-01T17:04:54;5.00;;;1.30;;
56824;SDS011;42705;50.326;18.772;2023-06-01T17:10:16;7.00;;;1.40;;
56824;SDS011;42705;50.326;18.772;2023-06-01T17:15:38;3.50;;;1.00;;
56824;SDS011;42705;50.326;18.772;2023-06-01T17:21:00;2.60;;;1.20;;
56824;SDS011;42705;50.326;18.772;2023-06-01T17:26:22;3.70;;;1.30;;
56824;SDS011;42705;50.326;18.772;2023-06-01T17:31:45;2.30;;;1.20;;
56824;SDS011;42705;50.326;18.772;2023-06-01T17:37:07;6.80;;;1.40;;
56824;SDS011;42705;50.326;18.772;2023-06-01T17:42:29;4.00;;;1.50;;
56824;SDS011;42705;50.326;18.772;2023-06-01T17:47:52;1.60;;;1.10;;
56824;SDS011;42705;50.326;18.772;2023-06-01T17:53:15;3.20;;;1.10;;
56824;SDS011;42705;50.326;18.772;2023-06-01T17:58:38;3.80;;;1.40;;
56824;SDS011;42705;50.326;18.772;2023-06-01T18:04:00;7.30;;;1.40;;
56824;SDS011;42705;50.326;18.772;2023-06-01T18:09:22;3.90;;;1.50;;
56824;SDS011;42705;50.326;18.772;2023-06-01T18:14:44;2.10;;;1.50;;
56824;SDS011;42705;50.326;18.772;2023-06-01T18:20:09;4.30;;;1.70;;
56824;SDS011;42705;50.326;18.772;2023-06-01T18:25:32;7.20;;;1.20;;
56824;SDS011;42705;50.326;18.772;2023-06-01T18:30:55;4.50;;;1.50;;
56824;SDS011;42705;50.326;18.772;2023-06-01T18:36:18;3.40;;;1.40;;
56824;SDS011;42705;50.326;18.772;2023-06-01T18:41:40;2.90;;;1.30;;
56824;SDS011;42705;50.326;18.772;2023-06-01T18:47:05;2.80;;;1.50;;
56824;SDS011;42705;50.326;18.772;2023-06-01T18:52:29;3.80;;;1.40;;
56824;SDS011;42705;50.326;18.772;2023-06-01T18:57:52;2.90;;;1.50;;
56824;SDS011;42705;50.326;18.772;2023-06-01T19:03:16;2.50;;;1.30;;
56824;SDS011;42705;50.326;18.772;2023-06-01T19:08:39;4.20;;;1.60;;
56824;SDS011;42705;50.326;18.772;2023-06-01T19:14:01;2.90;;;1.80;;
56824;SDS011;42705;50.326;18.772;2023-06-01T19:19:26;5.70;;;2.00;;
56824;SDS011;42705;50.326;18.772;2023-06-01T19:24:48;2.70;;;1.50;;
56824;SDS011;42705;50.326;18.772;2023-06-01T19:30:14;5.50;;;1.80;;
56824;SDS011;42705;50.326;18.772;2023-06-01T19:35:37;2.90;;;1.60;;
56824;SDS011;42705;50.326;18.772;2023-06-01T19:40:59;2.50;;;1.30;;
56824;SDS011;42705;50.326;18.772;2023-06-01T19:46:22;2.80;;;1.60;;
56824;SDS011;42705;50.326;18.772;2023-06-01T19:51:45;3.40;;;1.70;;
56824;SDS011;42705;50.326;18.772;2023-06-01T19:57:08;2.60;;;1.20;;
56824;SDS011;42705;50.326;18.772;2023-06-01T20:02:40;4.10;;;1.50;;
56824;SDS011;42705;50.326;18.772;2023-06-01T20:08:12;6.90;;;2.60;;
56824;SDS011;42705;50.326;18.772;2023-06-01T20:13:55;7.20;;;1.80;;
56824;SDS011;42705;50.326;18.772;2023-06-01T20:19:17;2.90;;;2.00;;
56824;SDS011;42705;50.326;18.772;2023-06-01T20:24:40;3.50;;;1.90;;
56824;SDS011;42705;50.326;18.772;2023-06-01T20:30:06;4.90;;;3.20;;
56824;SDS011;42705;50.326;18.772;2023-06-01T20:36:26;9.20;;;5.30;;
56824;SDS011;42705;50.326;18.772;2023-06-01T20:41:54;5.60;;;2.80;;
56824;SDS011;42705;50.326;18.772;2023-06-01T20:47:20;4.40;;;2.40;;
56824;SDS011;42705;50.326;18.772;2023-06-01T20:52:42;10.00;;;3.00;;
56824;SDS011;42705;50.326;18.772;2023-06-01T20:58:04;9.90;;;3.10;;
56824;SDS011;42705;50.326;18.772;2023-06-01T21:03:26;7.30;;;3.00;;
56824;SDS011;42705;50.326;18.772;2023-06-01T21:08:55;5.70;;;2.80;;
56824;SDS011;42705;50.326;18.772;2023-06-01T21:14:19;6.80;;;2.90;;
56824;SDS011;42705;50.326;18.772;2023-06-01T21:19:42;5.70;;;3.60;;
56824;SDS011;42705;50.326;18.772;2023-06-01T21:30:26;11.60;;;4.20;;
56824;SDS011;42705;50.326;18.772;2023-06-01T21:35:48;6.80;;;3.20;;
56824;SDS011;42705;50.326;18.772;2023-06-01T21:41:10;6.90;;;3.70;;
56824;SDS011;42705;50.326;18.772;2023-06-01T21:46:33;8.30;;;3.30;;
56824;SDS011;42705;50.326;18.772;2023-06-01T21:57:17;5.80;;;2.40;;
56824;SDS011;42705;50.326;18.772;2023-06-01T22:02:39;3.70;;;2.20;;
56824;SDS011;42705;50.326;18.772;2023-06-01T22:08:04;9.10;;;2.80;;
56824;SDS011;42705;50.326;18.772;2023-06-01T22:13:27;6.20;;;3.20;;
56824;SDS011;42705;50.326;18.772;2023-06-01T22:18:49;4.70;;;2.70;;
56824;SDS011;42705;50.326;18.772;2023-06-01T22:24:10;9.10;;;3.70;;
56824;SDS011;42705;50.326;18.772;2023-06-01T22:29:32;8.60;;;4.30;;
56824;SDS011;42705;50.326;18.772;2023-06-01T22:34:54;9.40;;;4.50;;
56824;SDS011;42705;50.326;18.772;2023-06-01T22:40:17;10.80;;;5.30;;
56824;SDS011;42705;50.326;18.772;2023-06-01T22:45:39;7.10;;;4.70;;
56824;SDS011;42705;50.326;18.772;2023-06-01T22:51:01;10.00;;;4.30;;
56824;SDS011;42705;50.326;18.772;2023-06-01T22:56:23;6.40;;;4.40;;
56824;SDS011;42705;50.326;18.772;2023-06-01T23:01:45;7.60;;;4.30;;
56824;SDS011;42705;50.326;18.772;2023-06-01T23:07:07;8.20;;;4.20;;
56824;SDS011;42705;50.326;18.772;2023-06-01T23:12:30;6.80;;;4.30;;
56824;SDS011;42705;50.326;18.772;2023-06-01T23:17:51;8.20;;;4.80;;
56824;SDS011;42705;50.326;18.772;2023-06-01T23:23:14;7.90;;;4.60;;
56824;SDS011;42705;50.326;18.772;2023-06-01T23:34:18;8.30;;;4.70;;
56824;SDS011;42705;50.326;18.772;2023-06-01T23:39:40;10.30;;;5.10;;
56824;SDS011;42705;50.326;18.772;2023-06-01T23:45:03;11.30;;;4.60;;
56824;SDS011;42705;50.326;18.772;2023-06-01T23:50:25;8.90;;;5.40;;
56824;SDS011;42705;50.326;18.772;2023-06-01T23:55:49;7.50;;;4.50;;
